Time;durP1;ratioP1;P1;durP2;ratioP2;P2;SDS_P1;SDS_P2;PMS_P1;PMS_P2;Temp;Humidity;BMP_temperature;BMP_pressure;BME280_temperature;BME280_humidity;BME280_pressure;Samples;Min_cycle;Max_cycle;Signal;HPM_P1;HPM_P2
2023/02/09 00:00:55;;;;;;;3.53;1.40;;;26.80;67.00;;;;;;4134983;28;20493;-45
2023/02/09 00:03:17;;;;;;;3.75;1.40;;;26.80;66.60;;;;;;4133402;28;20367;-45
2023/02/09 00:05:40;;;;;;;4.10;1.20;;;26.80;66.40;;;;;;4137235;28;20041;-46
2023/02/09 00:08:02;;;;;;;3.38;1.40;;;26.80;66.20;;;;;;4132134;28;20429;-46
2023/02/09 00:10:25;;;;;;;2.33;1.05;;;26.70;66.10;;;;;;4139172;28;20041;-45
2023/02/09 00:15:27;;;;;;;3.58;1.05;;;26.70;66.00;;;;;;4140478;28;20037;-45
2023/02/09 00:17:50;;;;;;;2.33;1.20;;;26.70;65.90;;;;;;4128603;28;20042;-47
2023/02/09 00:20:12;;;;;;;2.47;1.20;;;26.70;65.90;;;;;;4132034;28;20034;-46
2023/02/09 00:22:34;;;;;;;2.13;0.80;;;26.70;65.90;;;;;;4133897;28;20046;-46
2023/02/09 00:24:57;;;;;;;1.45;0.80;;;26.70;65.90;;;;;;4131244;28;20037;-45
2023/02/09 00:27:19;;;;;;;3.35;1.20;;;26.70;65.90;;;;;;4132965;28;20034;-46
2023/02/09 00:29:42;;;;;;;3.10;1.35;;;26.70;65.90;;;;;;4134075;28;20034;-44
2023/02/09 00:32:04;;;;;;;2.50;1.02;;;26.70;65.90;;;;;;4137195;28;20108;-46
2023/02/09 00:34:27;;;;;;;2.42;1.05;;;26.70;65.70;;;;;;4138791;28;20042;-48
2023/02/09 00:36:49;;;;;;;2.55;1.05;;;26.70;65.90;;;;;;4132452;28;20045;-46
2023/02/09 00:39:11;;;;;;;2.05;1.30;;;26.70;65.70;;;;;;4136027;28;20057;-47
2023/02/09 00:44:14;;;;;;;1.52;1.00;;;26.70;65.60;;;;;;4135444;28;20458;-47
2023/02/09 00:46:37;;;;;;;2.85;1.17;;;26.70;65.60;;;;;;4136317;28;20064;-48
2023/02/09 00:48:59;;;;;;;1.92;1.10;;;26.80;65.60;;;;;;4139383;28;20134;-48
2023/02/09 00:51:22;;;;;;;2.67;1.00;;;26.70;65.40;;;;;;4131930;28;20442;-46
2023/02/09 00:53:44;;;;;;;2.25;1.27;;;26.70;65.60;;;;;;4138914;28;20041;-47
2023/02/09 00:56:07;;;;;;;2.00;0.90;;;26.70;65.50;;;;;;4132447;28;20046;-48
2023/02/09 00:58:29;;;;;;;2.30;0.98;;;26.70;65.50;;;;;;4132479;28;20065;-45
2023/02/09 01:00:52;;;;;;;1.23;0.82;;;26.70;65.50;;;;;;4131981;28;20045;-48
2023/02/09 01:03:14;;;;;;;2.30;1.00;;;26.70;65.70;;;;;;4129140;28;20513;-47
2023/02/09 01:05:41;;;;;;;3.63;1.08;;;26.70;65.80;;;;;;4129187;28;20187;-45
2023/02/09 01:08:04;;;;;;;2.05;0.90;;;26.80;66.00;;;;;;4133804;28;20417;-46
2023/02/09 01:10:26;;;;;;;2.38;0.60;;;26.80;66.00;;;;;;4132501;28;20038;-45
2023/02/09 01:12:49;;;;;;;1.83;0.77;;;26.80;66.10;;;;;;4129789;28;20046;-44
2023/02/09 01:15:11;;;;;;;1.00;0.70;;;26.80;66.10;;;;;;4133222;28;20037;-49
2023/02/09 01:17:34;;;;;;;1.17;0.57;;;26.80;66.10;;;;;;4136682;28;20045;-48
2023/02/09 01:19:57;;;;;;;4.13;1.03;;;26.90;66.30;;;;;;4127802;28;20042;-44
2023/02/09 01:22:20;;;;;;;2.20;1.00;;;26.90;66.40;;;;;;4121753;28;20134;-44
2023/02/09 01:24:42;;;;;;;1.57;0.87;;;26.90;66.40;;;;;;4127740;28;20115;-43
2023/02/09 01:27:04;;;;;;;16.48;2.15;;;26.90;66.40;;;;;;4135019;28;20299;-44
2023/02/09 01:29:27;;;;;;;4.55;1.25;;;27.00;66.50;;;;;;4128020;28;20061;-42
2023/02/09 01:31:49;;;;;;;8.43;1.38;;;26.90;66.30;;;;;;4129400;28;20034;-46
2023/02/09 01:34:14;;;;;;;8.10;1.67;;;27.00;66.40;;;;;;4125807;28;20484;-50
2023/02/09 01:36:36;;;;;;;3.63;1.30;;;27.00;66.60;;;;;;4127560;28;20500;-45
2023/02/09 01:39:00;;;;;;;10.07;1.48;;;27.00;66.40;;;;;;4132096;28;20129;-46
2023/02/09 01:41:23;;;;;;;6.57;1.98;;;27.00;66.60;;;;;;4131294;28;20082;-47
2023/02/09 01:43:52;;;;;;;5.57;1.48;;;27.00;66.60;;;;;;4123202;28;20121;-45
2023/02/09 01:46:14;;;;;;;2.88;1.13;;;27.10;66.80;;;;;;4136509;28;20496;-44
2023/02/09 01:48:36;;;;;;;3.50;1.20;;;27.10;66.70;;;;;;4137124;28;20046;-43
2023/02/09 01:51:00;;;;;;;2.45;1.30;;;27.10;66.70;;;;;;4135856;28;20091;-45
2023/02/09 01:53:23;;;;;;;2.88;1.25;;;27.10;66.80;;;;;;4135376;28;20057;-45
2023/02/09 01:56:01;;;;;;;3.78;1.13;;;27.10;66.80;;;;;;4135262;28;20046;-45
2023/02/09 01:58:26;;;;;;;3.70;1.20;;;27.10;66.90;;;;;;4132235;28;20073;-47
2023/02/09 02:00:49;;;;;;;2.60;1.13;;;27.10;66.70;;;;;;4135076;28;20029;-48
2023/02/09 02:03:23;;;;;;;1.98;0.77;;;27.10;66.50;;;;;;4133195;28;20414;-48
2023/02/09 02:05:50;;;;;;;3.35;1.13;;;27.10;66.40;;;;;;4137773;28;20125;-44
2023/02/09 02:08:36;;;;;;;2.75;1.23;;;27.10;66.50;;;;;;4134753;28;20528;-49
2023/02/09 02:10:58;;;;;;;2.95;1.02;;;27.10;66.50;;;;;;4134949;28;20039;-48
2023/02/09 02:13:21;;;;;;;3.05;1.23;;;27.10;66.40;;;;;;4134988;28;20061;-44
2023/02/09 02:16:18;;;;;;;2.85;1.55;;;27.10;66.30;;;;;;4136623;28;20033;-46
2023/02/09 02:18:59;;;;;;;2.28;1.10;;;27.20;66.40;;;;;;4103116;28;20046;-43
2023/02/09 02:21:42;;;;;;;3.88;1.23;;;27.20;66.50;;;;;;4133395;28;20456;-46
2023/02/09 02:24:17;;;;;;;8.40;1.60;;;27.20;66.70;;;;;;4132447;28;20045;-47
2023/02/09 02:26:51;;;;;;;2.80;1.13;;;27.30;66.70;;;;;;4135025;28;20053;-45
2023/02/09 02:29:13;;;;;;;1.52;0.90;;;27.30;66.60;;;;;;4133552;28;20534;-47
2023/02/09 02:32:00;;;;;;;1.33;1.10;;;27.40;66.50;;;;;;4133912;28;20684;-44
2023/02/09 02:34:40;;;;;;;1.83;0.90;;;27.40;66.50;;;;;;4134325;28;20133;-46
2023/02/09 02:37:09;;;;;;;3.60;1.35;;;27.40;66.50;;;;;;4128729;28;20089;-45
2023/02/09 02:40:03;;;;;;;1.73;0.95;;;27.40;66.40;;;;;;4131436;28;20042;-45
2023/02/09 02:42:53;;;;;;;3.58;1.10;;;27.50;66.40;;;;;;4130612;28;20559;-45
2023/02/09 02:45:35;;;;;;;3.70;1.00;;;27.40;66.40;;;;;;4134120;28;20049;-44
2023/02/09 02:48:11;;;;;;;8.75;1.58;;;27.50;66.40;;;;;;4131394;28;20045;-47
2023/02/09 02:50:39;;;;;;;38.17;4.00;;;27.50;66.50;;;;;;4133223;28;20544;-45
2023/02/09 02:53:05;;;;;;;19.35;2.92;;;27.50;66.60;;;;;;4130957;28;20042;-47
2023/02/09 02:55:30;;;;;;;6.05;2.55;;;27.50;66.40;;;;;;4126922;28;20122;-47
2023/02/09 02:57:55;;;;;;;11.93;2.28;;;27.50;66.30;;;;;;4134234;28;20050;-45
2023/02/09 03:00:31;;;;;;;4.65;1.75;;;27.50;66.40;;;;;;4135810;28;20041;-44
2023/02/09 03:02:57;;;;;;;8.20;1.90;;;27.40;66.40;;;;;;4135155;28;20037;-46
2023/02/09 03:05:23;;;;;;;5.03;1.60;;;27.40;66.50;;;;;;4134250;28;20034;-43
2023/02/09 03:07:46;;;;;;;4.55;1.80;;;27.40;66.50;;;;;;4126316;28;20041;-43
2023/02/09 03:10:26;;;;;;;4.15;1.35;;;27.50;66.60;;;;;;4129671;28;20136;-43
2023/02/09 03:13:00;;;;;;;3.38;1.42;;;27.50;66.60;;;;;;4125975;28;20060;-43
2023/02/09 03:15:31;;;;;;;;;;;27.50;66.60;;;;;;4131732;28;20042;-42
2023/02/09 03:18:38;;;;;;;3.40;1.23;;;27.50;66.60;;;;;;4131250;28;20539;-42
2023/02/09 03:22:01;;;;;;;4.22;1.60;;;27.50;66.70;;;;;;4080347;29;20049;-43
2023/02/09 03:24:48;;;;;;;2.58;1.38;;;27.60;66.70;;;;;;4018224;29;20544;-44
2023/02/09 03:27:28;;;;;;;3.13;1.40;;;27.60;66.90;;;;;;4129931;28;20444;-42
2023/02/09 03:29:55;;;;;;;2.63;1.48;;;27.60;66.80;;;;;;4128992;28;20518;-41
2023/02/09 03:32:20;;;;;;;2.17;1.00;;;27.60;67.20;;;;;;4130804;28;20095;-43
2023/02/09 03:34:43;;;;;;;3.75;1.15;;;27.60;66.90;;;;;;4131248;28;20045;-43
2023/02/09 03:37:06;;;;;;;4.80;1.38;;;27.60;66.90;;;;;;4120766;28;20093;-42
2023/02/09 03:39:29;;;;;;;2.03;0.95;;;27.60;66.80;;;;;;4123874;28;20030;-43
2023/02/09 03:41:51;;;;;;;3.85;1.17;;;27.70;66.80;;;;;;4122639;28;20057;-44
2023/02/09 03:44:26;;;;;;;2.05;0.98;;;27.70;66.70;;;;;;4131832;28;20050;-42
2023/02/09 03:46:48;;;;;;;2.63;1.10;;;27.70;66.50;;;;;;4122651;28;20560;-41
2023/02/09 03:49:13;;;;;;;2.33;1.30;;;27.70;66.60;;;;;;4121182;28;20116;-44
2023/02/09 03:51:36;;;;;;;1.55;0.70;;;27.70;66.60;;;;;;4122111;28;20124;-46
2023/02/09 03:53:58;;;;;;;3.92;1.25;;;27.70;66.50;;;;;;4131530;28;20696;-42
2023/02/09 03:56:23;;;;;;;1.40;0.88;;;27.70;66.50;;;;;;4127666;28;20046;-42
2023/02/09 03:58:46;;;;;;;2.22;1.08;;;27.70;66.40;;;;;;4127167;28;20049;-43
2023/02/09 04:01:10;;;;;;;1.92;0.85;;;27.70;66.20;;;;;;4132621;28;20831;-41
2023/02/09 04:03:32;;;;;;;1.30;0.82;;;27.70;66.10;;;;;;4133279;28;20581;-47
2023/02/09 04:05:55;;;;;;;2.58;1.10;;;27.70;66.00;;;;;;4133384;28;20038;-46
2023/02/09 04:08:17;;;;;;;2.40;1.02;;;27.70;66.30;;;;;;4131701;28;20079;-43
2023/02/09 04:10:40;;;;;;;1.15;0.80;;;27.60;66.60;;;;;;4132716;28;20042;-42
2023/02/09 04:13:02;;;;;;;1.10;0.70;;;27.60;67.00;;;;;;4130836;28;20051;-41
2023/02/09 04:15:24;;;;;;;2.97;0.93;;;27.70;67.10;;;;;;4135436;28;20183;-42
2023/02/09 04:17:47;;;;;;;2.95;1.08;;;27.70;67.00;;;;;;4134226;28;20042;-42
2023/02/09 04:20:09;;;;;;;3.33;0.88;;;27.70;67.10;;;;;;4134968;28;20038;-40
2023/02/09 04:22:32;;;;;;;2.83;0.90;;;27.70;67.20;;;;;;4133813;28;20080;-42
2023/02/09 04:24:54;;;;;;;2.65;1.10;;;27.70;67.00;;;;;;4130247;28;20129;-42
2023/02/09 04:27:17;;;;;;;5.45;1.25;;;27.70;67.20;;;;;;4124074;28;20041;-42
2023/02/09 04:29:39;;;;;;;2.75;1.40;;;27.70;67.30;;;;;;4136082;28;20038;-41
2023/02/09 04:32:02;;;;;;;2.20;1.08;;;27.80;67.50;;;;;;4139773;28;20197;-41
2023/02/09 04:34:24;;;;;;;7.68;1.60;;;27.70;67.20;;;;;;4138126;28;20049;-42
2023/02/09 04:36:47;;;;;;;4.68;1.60;;;27.80;67.30;;;;;;4143192;28;20038;-44
2023/02/09 04:39:09;;;;;;;3.57;1.10;;;27.80;67.30;;;;;;4138209;28;20592;-44
2023/02/09 04:41:32;;;;;;;4.70;0.90;;;27.90;67.10;;;;;;4141237;28;20298;-42
2023/02/09 04:43:54;;;;;;;2.67;0.85;;;27.90;67.10;;;;;;4127400;28;20042;-43
2023/02/09 04:46:18;;;;;;;5.63;1.20;;;28.00;66.90;;;;;;4135527;28;20257;-40
2023/02/09 04:48:41;;;;;;;3.45;0.85;;;28.00;66.70;;;;;;4131765;28;20489;-42
2023/02/09 04:51:03;;;;;;;3.50;1.17;;;28.00;66.60;;;;;;4133786;28;20037;-43
2023/02/09 04:53:28;;;;;;;3.53;1.48;;;28.00;66.50;;;;;;4132335;28;20119;-44
2023/02/09 04:55:51;;;;;;;2.30;1.00;;;28.00;66.50;;;;;;4134201;28;20506;-44
2023/02/09 05:00:56;;;;;;;3.67;0.98;;;28.00;66.50;;;;;;4133707;28;19988;-41
2023/02/09 05:03:18;;;;;;;2.63;1.13;;;28.00;66.40;;;;;;4134341;28;20347;-42
2023/02/09 05:05:41;;;;;;;2.67;0.85;;;28.00;66.40;;;;;;4131900;28;20345;-48
2023/02/09 05:08:04;;;;;;;3.80;0.95;;;28.00;66.40;;;;;;4132771;28;20222;-42
2023/02/09 05:10:26;;;;;;;13.93;1.80;;;28.00;66.40;;;;;;4136145;28;20117;-40
2023/02/09 05:12:48;;;;;;;3.90;1.35;;;27.90;66.30;;;;;;4129388;28;20057;-45
2023/02/09 05:15:11;;;;;;;4.18;1.42;;;28.00;66.30;;;;;;4129260;28;20137;-48
2023/02/09 05:17:33;;;;;;;2.83;0.70;;;27.90;66.20;;;;;;4131375;28;20516;-44
2023/02/09 05:19:56;;;;;;;5.82;0.95;;;27.90;66.30;;;;;;4125909;28;20041;-46
2023/02/09 05:22:18;;;;;;;2.40;0.70;;;27.90;66.30;;;;;;4130533;28;20525;-45
2023/02/09 05:24:41;;;;;;;3.67;0.80;;;27.90;66.30;;;;;;4133862;28;20046;-42
2023/02/09 05:27:03;;;;;;;3.20;0.98;;;27.90;66.30;;;;;;4130587;28;20115;-42
2023/02/09 05:29:26;;;;;;;2.78;1.10;;;27.90;66.30;;;;;;4127933;28;20041;-44
2023/02/09 05:31:48;;;;;;;4.07;0.98;;;27.90;66.40;;;;;;4128774;28;20096;-45
2023/02/09 05:34:10;;;;;;;2.15;0.77;;;27.90;66.50;;;;;;4134628;28;20053;-42
2023/02/09 05:36:33;;;;;;;4.15;1.40;;;27.80;66.50;;;;;;4133416;28;20813;-42
2023/02/09 05:38:55;;;;;;;3.33;0.90;;;27.80;66.60;;;;;;4130814;28;20034;-41
2023/02/09 05:43:58;;;;;;;2.53;1.08;;;27.80;66.40;;;;;;4124427;28;20049;-44
2023/02/09 05:46:21;;;;;;;3.83;1.00;;;27.80;66.30;;;;;;4134917;28;20058;-41
2023/02/09 05:48:43;;;;;;;6.13;1.45;;;27.80;66.40;;;;;;4135428;28;20030;-40
2023/02/09 05:51:05;;;;;;;4.78;1.00;;;27.90;66.50;;;;;;4137105;28;20188;-41
2023/02/09 05:53:28;;;;;;;4.20;1.10;;;27.90;66.50;;;;;;4135942;28;20052;-40
2023/02/09 05:55:50;;;;;;;4.05;1.15;;;28.00;66.30;;;;;;4141790;28;20034;-40
2023/02/09 05:58:13;;;;;;;2.90;0.98;;;28.00;66.10;;;;;;4132834;28;20050;-40
2023/02/09 06:00:35;;;;;;;2.97;1.00;;;28.10;65.50;;;;;;4139441;28;20549;-42
2023/02/09 06:02:58;;;;;;;2.17;1.00;;;28.30;65.70;;;;;;4135513;28;20549;-42
2023/02/09 06:05:21;;;;;;;2.38;1.20;;;28.40;65.50;;;;;;4138356;28;20046;-43
2023/02/09 06:07:43;;;;;;;5.03;1.00;;;28.50;65.30;;;;;;4135281;28;20161;-46
2023/02/09 06:10:06;;;;;;;2.78;1.00;;;28.50;65.10;;;;;;4141308;28;20492;-42
2023/02/09 06:12:28;;;;;;;3.92;0.73;;;28.50;65.10;;;;;;4139040;28;20046;-43
2023/02/09 06:14:50;;;;;;;1.77;0.90;;;28.50;65.00;;;;;;4138779;28;20548;-41
2023/02/09 06:17:13;;;;;;;1.17;1.05;;;28.50;65.00;;;;;;4138055;28;20038;-46
2023/02/09 06:19:35;;;;;;;3.08;1.20;;;28.50;65.00;;;;;;4143256;28;20048;-49
2023/02/09 06:21:58;;;;;;;2.63;1.20;;;28.50;65.00;;;;;;4140157;28;20497;-42
2023/02/09 06:24:20;;;;;;;2.03;0.95;;;28.50;65.00;;;;;;4130017;28;20451;-45
2023/02/09 06:26:43;;;;;;;2.05;0.90;;;28.50;65.00;;;;;;4135799;28;20045;-41
2023/02/09 06:29:06;;;;;;;1.70;1.05;;;28.40;64.90;;;;;;4130663;28;20276;-41
2023/02/09 06:31:29;;;;;;;1.85;0.70;;;28.40;64.80;;;;;;4130812;28;20049;-40
2023/02/09 06:33:51;;;;;;;1.42;1.02;;;28.50;64.90;;;;;;4137320;28;20045;-41
2023/02/09 06:36:13;;;;;;;3.22;1.20;;;28.40;64.80;;;;;;4138875;28;20061;-45
2023/02/09 06:38:37;;;;;;;2.38;1.00;;;28.40;64.90;;;;;;4133258;28;20045;-41
2023/02/09 06:40:59;;;;;;;2.17;0.90;;;28.40;65.00;;;;;;4136893;28;20038;-43
2023/02/09 06:43:22;;;;;;;4.10;1.25;;;28.40;64.90;;;;;;4127820;28;20042;-43
2023/02/09 06:45:44;;;;;;;2.97;1.13;;;28.40;65.10;;;;;;4126189;28;20046;-43
2023/02/09 06:48:07;;;;;;;16.08;1.65;;;28.40;65.10;;;;;;4134722;28;20073;-41
2023/02/09 06:50:30;;;;;;;3.13;0.95;;;28.40;65.10;;;;;;4131840;28;20436;-39
2023/02/09 06:52:52;;;;;;;2.45;1.33;;;28.40;65.00;;;;;;4127952;28;20046;-40
2023/02/09 06:55:15;;;;;;;5.10;1.15;;;28.40;65.00;;;;;;4129133;28;20514;-39
2023/02/09 06:57:38;;;;;;;4.23;1.40;;;28.40;65.00;;;;;;4128870;28;20057;-42
2023/02/09 07:00:00;;;;;;;3.20;1.50;;;28.40;65.00;;;;;;4132956;28;20049;-44
2023/02/09 07:02:23;;;;;;;10.10;1.45;;;28.40;64.90;;;;;;4130112;28;20283;-41
2023/02/09 07:04:45;;;;;;;6.10;1.35;;;28.40;65.00;;;;;;4128574;28;20037;-47
2023/02/09 07:07:08;;;;;;;2.47;1.08;;;28.40;64.90;;;;;;4132638;28;20038;-47
2023/02/09 07:09:30;;;;;;;2.42;0.85;;;28.50;64.90;;;;;;4128147;28;20037;-43
2023/02/09 07:11:52;;;;;;;2.50;1.10;;;28.50;64.80;;;;;;4130636;28;20069;-43
2023/02/09 07:14:15;;;;;;;4.03;1.35;;;28.50;64.70;;;;;;4132019;28;20473;-42
2023/02/09 07:16:38;;;;;;;3.63;1.38;;;28.50;64.60;;;;;;4131514;28;20042;-44
2023/02/09 07:19:00;;;;;;;4.57;1.20;;;28.50;64.60;;;;;;4131552;28;20046;-46
2023/02/09 07:21:22;;;;;;;2.47;1.20;;;28.50;64.60;;;;;;4132255;28;20062;-43
2023/02/09 07:23:46;;;;;;;3.55;1.10;;;28.50;64.70;;;;;;4133000;28;20124;-43
2023/02/09 07:26:12;;;;;;;2.60;1.02;;;28.50;64.70;;;;;;4138096;28;20042;-44
2023/02/09 07:28:37;;;;;;;4.35;1.40;;;28.50;64.70;;;;;;4137657;28;20056;-45
2023/02/09 07:31:05;;;;;;;4.68;1.27;;;28.50;64.70;;;;;;4138109;28;20033;-48
2023/02/09 07:33:27;;;;;;;3.75;1.20;;;28.50;64.20;;;;;;4140778;28;20644;-42
2023/02/09 07:35:50;;;;;;;4.38;1.55;;;28.50;64.20;;;;;;4135503;28;20149;-47
2023/02/09 07:38:12;;;;;;;4.10;1.50;;;28.50;64.20;;;;;;4130488;28;20042;-44
2023/02/09 07:40:37;;;;;;;4.20;1.23;;;28.40;64.10;;;;;;4136183;28;20604;-44
2023/02/09 07:42:59;;;;;;;2.70;1.15;;;28.40;64.00;;;;;;4129360;28;20034;-45
2023/02/09 07:45:22;;;;;;;4.28;1.30;;;28.40;64.10;;;;;;4133412;28;20081;-49
2023/02/09 07:47:44;;;;;;;2.42;0.93;;;28.40;64.00;;;;;;4138368;28;20356;-46
2023/02/09 07:50:07;;;;;;;2.20;0.88;;;28.30;63.90;;;;;;4147603;28;20034;-47
2023/02/09 07:52:29;;;;;;;2.72;1.30;;;28.30;63.90;;;;;;4139149;28;20064;-52
2023/02/09 07:54:51;;;;;;;2.72;1.15;;;28.30;63.80;;;;;;4139153;28;20132;-46
2023/02/09 07:57:14;;;;;;;7.75;1.80;;;28.30;63.90;;;;;;4138246;28;20459;-45
2023/02/09 07:59:36;;;;;;;4.18;2.10;;;28.20;63.80;;;;;;4138835;28;20033;-47
2023/02/09 08:01:59;;;;;;;6.53;3.35;;;28.20;63.80;;;;;;4131901;28;20569;-46
2023/02/09 08:04:22;;;;;;;9.57;4.22;;;28.20;63.80;;;;;;4141021;28;20583;-47
2023/02/09 08:06:46;;;;;;;6.88;4.22;;;28.20;63.80;;;;;;4137039;28;20386;-45
2023/02/09 08:09:09;;;;;;;6.03;4.47;;;28.20;63.80;;;;;;4140166;28;20042;-45
2023/02/09 08:11:40;;;;;;;;;;;28.20;63.80;;;;;;4143492;28;20402;-45
2023/02/09 08:14:08;;;;;;;8.02;5.05;;;28.10;63.90;;;;;;4144876;28;20619;-45
2023/02/09 08:16:33;;;;;;;7.90;5.00;;;28.10;63.70;;;;;;4138681;28;20037;-45
2023/02/09 08:18:59;;;;;;;7.32;4.90;;;28.10;63.70;;;;;;4132576;28;20038;-45
2023/02/09 08:21:22;;;;;;;6.70;4.20;;;28.10;63.70;;;;;;4136077;28;20057;-45
2023/02/09 08:23:48;;;;;;;6.47;4.43;;;28.10;63.70;;;;;;4136088;28;20041;-45
2023/02/09 08:26:13;;;;;;;8.50;4.95;;;28.00;63.70;;;;;;4127054;28;20751;-44
2023/02/09 08:28:37;;;;;;;8.52;4.13;;;28.00;63.60;;;;;;4133927;28;20042;-45
2023/02/09 08:30:59;;;;;;;8.40;3.95;;;28.00;63.70;;;;;;4134693;28;20461;-47
2023/02/09 08:33:22;;;;;;;5.53;3.47;;;28.00;63.80;;;;;;4125492;28;20050;-46
2023/02/09 08:35:45;;;;;;;7.07;3.80;;;28.00;63.90;;;;;;4132449;28;20042;-44
2023/02/09 08:38:07;;;;;;;6.60;3.38;;;28.00;64.00;;;;;;4133034;28;20140;-43
2023/02/09 08:40:30;;;;;;;5.60;3.47;;;28.00;64.10;;;;;;4132930;28;20264;-45
2023/02/09 08:42:53;;;;;;;12.63;3.85;;;27.90;64.10;;;;;;4134698;28;20121;-47
2023/02/09 08:45:16;;;;;;;8.87;3.63;;;27.90;64.10;;;;;;4136418;28;20033;-47
2023/02/09 08:47:38;;;;;;;9.43;3.33;;;27.90;64.20;;;;;;4137081;28;20268;-51
2023/02/09 08:50:01;;;;;;;6.35;3.17;;;27.90;64.30;;;;;;4134630;28;20049;-43
2023/02/09 08:52:23;;;;;;;3.92;2.47;;;27.90;64.40;;;;;;4131018;28;20038;-49
2023/02/09 08:54:45;;;;;;;10.80;3.60;;;27.90;64.50;;;;;;4137427;28;20136;-44
2023/02/09 08:57:08;;;;;;;5.35;2.90;;;27.90;64.20;;;;;;4135364;28;20172;-47
2023/02/09 08:59:31;;;;;;;7.95;3.72;;;27.80;61.40;;;;;;4131886;28;20042;-44
2023/02/09 09:01:54;;;;;;;4.88;2.30;;;27.50;60.00;;;;;;4130254;28;20411;-43
2023/02/09 09:04:16;;;;;;;3.58;2.10;;;27.30;59.60;;;;;;4134007;28;20072;-45
2023/02/09 09:06:39;;;;;;;3.72;2.08;;;27.10;58.30;;;;;;4131253;28;20038;-43
2023/02/09 09:09:02;;;;;;;4.85;2.00;;;26.90;57.50;;;;;;4132836;28;20168;-43
2023/02/09 09:11:24;;;;;;;3.47;1.80;;;26.60;57.40;;;;;;4132662;28;20050;-45
2023/02/09 09:13:47;;;;;;;4.68;1.95;;;26.50;57.40;;;;;;4131595;28;20041;-44
2023/02/09 09:16:19;;;;;;;7.00;1.90;;;26.20;56.80;;;;;;4132153;28;20069;-45
2023/02/09 09:18:43;;;;;;;2.97;2.20;;;26.10;57.70;;;;;;4135802;28;20789;-43
2023/02/09 09:21:05;;;;;;;5.35;2.05;;;25.90;57.10;;;;;;4128107;28;20194;-43
2023/02/09 09:23:28;;;;;;;2.90;1.60;;;25.70;56.70;;;;;;4130728;28;20065;-42
2023/02/09 09:25:50;;;;;;;2.95;1.70;;;25.60;56.80;;;;;;4129045;28;20096;-46
2023/02/09 09:28:13;;;;;;;3.17;1.70;;;25.40;57.00;;;;;;4133006;28;20053;-48
2023/02/09 09:30:35;;;;;;;3.15;1.50;;;25.30;56.30;;;;;;4129953;28;20042;-47
2023/02/09 09:32:58;;;;;;;3.10;1.40;;;25.10;56.00;;;;;;4129292;28;20490;-46
2023/02/09 09:35:20;;;;;;;4.65;1.50;;;25.00;56.40;;;;;;4135263;28;20073;-47
2023/02/09 09:37:43;;;;;;;3.20;1.30;;;24.90;57.30;;;;;;4132702;28;20642;-46
2023/02/09 09:40:06;;;;;;;4.40;1.45;;;24.80;58.20;;;;;;4130738;28;20042;-44
2023/02/09 09:42:42;;;;;;;2.53;1.20;;;24.90;58.10;;;;;;4132185;28;20497;-47
2023/02/09 09:45:07;;;;;;;1.85;1.10;;;24.90;58.50;;;;;;4129373;28;20045;-46
2023/02/09 09:47:41;;;;;;;2.88;1.17;;;25.00;58.60;;;;;;4128122;28;20046;-43
2023/02/09 09:50:15;;;;;;;4.40;1.15;;;25.00;59.00;;;;;;4129812;28;20517;-44
2023/02/09 09:52:42;;;;;;;3.97;1.10;;;25.00;59.10;;;;;;4129744;28;20038;-47
2023/02/09 09:55:13;;;;;;;2.55;0.82;;;25.10;59.40;;;;;;4127371;28;20056;-48
2023/02/09 09:57:42;;;;;;;1.92;0.98;;;25.10;59.50;;;;;;4134000;28;20617;-47
2023/02/09 10:00:15;;;;;;;3.25;1.08;;;25.10;59.70;;;;;;4126812;28;20069;-44
2023/02/09 10:02:38;;;;;;;5.97;1.33;;;25.20;60.00;;;;;;4130848;28;20089;-46
2023/02/09 10:05:15;;;;;;;10.07;1.33;;;25.20;60.30;;;;;;4129348;28;20121;-45
2023/02/09 10:07:41;;;;;;;5.05;1.23;;;25.30;60.70;;;;;;4132648;28;20287;-49
2023/02/09 10:10:16;;;;;;;4.35;1.33;;;25.30;60.90;;;;;;4133299;28;20072;-44
2023/02/09 10:12:45;;;;;;;3.53;1.13;;;25.40;61.00;;;;;;4137459;28;20088;-45
2023/02/09 10:15:37;;;;;;;3.40;0.93;;;25.40;61.10;;;;;;4129262;28;20046;-47
2023/02/09 10:18:00;;;;;;;3.72;1.10;;;25.40;61.20;;;;;;4124914;28;20034;-44
2023/02/09 10:21:01;;;;;;;6.78;1.40;;;25.50;61.40;;;;;;4130285;28;20053;-43
2023/02/09 10:23:39;;;;;;;3.88;0.95;;;25.50;61.60;;;;;;4133939;28;20049;-44
2023/02/09 10:26:18;;;;;;;1.95;0.80;;;25.60;61.70;;;;;;4132560;28;20046;-43
2023/02/09 10:28:44;;;;;;;4.35;1.65;;;25.60;61.70;;;;;;4127566;28;20050;-44
2023/02/09 10:31:28;;;;;;;3.10;0.98;;;25.60;61.90;;;;;;4128737;28;20486;-45
2023/02/09 10:34:15;;;;;;;1.20;0.68;;;25.70;62.00;;;;;;4129721;28;20056;-45
2023/02/09 10:37:13;;;;;;;1.50;0.70;;;25.70;61.70;;;;;;4130445;28;20030;-42
2023/02/09 10:39:35;;;;;;;2.00;0.93;;;25.70;62.30;;;;;;4129921;28;20037;-47
2023/02/09 10:42:12;;;;;;;2.05;1.00;;;25.70;62.30;;;;;;4133416;28;21007;-46
2023/02/09 10:44:35;;;;;;;1.77;0.93;;;25.70;62.30;;;;;;4128321;28;20038;-43
2023/02/09 10:47:11;;;;;;;;;;;25.80;62.50;;;;;;4128413;28;20046;-43
2023/02/09 10:49:37;;;;;;;3.67;1.30;;;25.80;62.50;;;;;;4130466;28;19922;-44
2023/02/09 10:52:20;;;;;;;5.38;1.35;;;25.90;62.80;;;;;;4128978;28;20118;-43
2023/02/09 10:54:52;;;;;;;1.70;0.90;;;25.90;62.80;;;;;;4131830;28;20359;-47
2023/02/09 10:57:40;;;;;;;2.33;1.10;;;25.90;62.80;;;;;;4130873;28;20977;-43
2023/02/09 11:00:18;;;;;;;3.65;0.82;;;25.90;62.90;;;;;;4130703;28;20042;-43
2023/02/09 11:02:42;;;;;;;2.08;1.00;;;25.90;63.00;;;;;;4131816;28;20049;-44
2023/02/09 11:05:22;;;;;;;2.78;0.93;;;25.90;63.00;;;;;;4130160;28;20074;-47
2023/02/09 11:07:48;;;;;;;3.08;1.17;;;26.00;63.10;;;;;;4129661;28;20034;-44
2023/02/09 11:10:12;;;;;;;5.15;1.20;;;26.00;63.20;;;;;;4118523;28;20034;-44
2023/02/09 11:12:35;;;;;;;4.35;1.30;;;26.00;63.30;;;;;;4128728;28;20048;-46
2023/02/09 11:14:58;;;;;;;2.85;0.95;;;26.00;63.40;;;;;;4132308;28;20483;-42
2023/02/09 11:17:44;;;;;;;6.03;1.50;;;26.00;63.30;;;;;;4130269;28;20035;-43
2023/02/09 11:20:27;;;;;;;4.05;1.45;;;26.00;63.40;;;;;;4135321;28;20069;-54
2023/02/09 11:23:02;;;;;;;4.75;2.33;;;26.00;63.60;;;;;;4118564;28;20120;-43
2023/02/09 11:25:37;;;;;;;7.13;2.03;;;26.00;63.80;;;;;;4129458;28;20053;-47
2023/02/09 11:28:24;;;;;;;13.13;3.00;;;26.00;63.70;;;;;;4128477;28;20065;-44
2023/02/09 11:31:17;;;;;;;8.52;1.90;;;26.00;64.00;;;;;;4130992;28;20046;-47
2023/02/09 11:34:06;;;;;;;10.10;1.75;;;26.00;63.90;;;;;;4139586;28;20339;-43
2023/02/09 11:37:05;;;;;;;5.50;1.55;;;26.00;64.00;;;;;;4134042;28;20347;-47
2023/02/09 11:39:43;;;;;;;4.85;1.48;;;26.00;64.10;;;;;;4131567;28;20044;-51
2023/02/09 11:44:58;;;;;;;3.78;1.20;;;26.00;64.10;;;;;;4135825;28;20073;-45
2023/02/09 11:47:45;;;;;;;3.38;1.15;;;26.00;64.50;;;;;;4119006;28;20431;-46
2023/02/09 11:50:14;;;;;;;7.68;1.40;;;26.00;64.50;;;;;;4137954;28;20048;-46
2023/02/09 11:52:47;;;;;;;6.68;1.42;;;26.10;64.50;;;;;;4133784;28;20034;-43
2023/02/09 11:55:32;;;;;;;3.42;1.10;;;26.10;64.50;;;;;;4135180;28;20129;-44
2023/02/09 11:58:28;;;;;;;5.22;1.20;;;26.10;64.50;;;;;;4137225;28;20081;-47
2023/02/09 12:01:19;;;;;;;4.85;1.50;;;26.10;64.50;;;;;;4136362;28;20045;-48
2023/02/09 12:03:52;;;;;;;3.22;1.00;;;26.10;64.50;;;;;;4110520;28;20046;-54
2023/02/09 12:06:21;;;;;;;2.67;0.90;;;26.10;64.50;;;;;;4137378;28;20033;-47
2023/02/09 12:08:54;;;;;;;4.82;1.17;;;26.10;64.60;;;;;;4131377;28;20128;-49
2023/02/09 12:11:46;;;;;;;3.35;1.00;;;26.10;64.60;;;;;;4134185;28;20034;-43
2023/02/09 12:14:43;;;;;;;5.35;1.25;;;26.10;64.60;;;;;;4105167;28;20049;-43
2023/02/09 12:17:39;;;;;;;7.78;1.27;;;26.20;64.60;;;;;;4129255;28;20042;-46
2023/02/09 12:20:03;;;;;;;3.67;1.05;;;26.20;64.70;;;;;;4132112;28;20041;-43
2023/02/09 12:22:34;;;;;;;2.83;1.13;;;26.20;64.70;;;;;;4136554;28;20458;-46
2023/02/09 12:25:12;;;;;;;3.03;1.13;;;26.20;64.60;;;;;;4139606;28;20508;-45
2023/02/09 12:27:37;;;;;;;2.05;0.95;;;26.20;64.60;;;;;;4136763;28;20559;-48
2023/02/09 12:30:00;;;;;;;2.00;0.98;;;26.20;64.70;;;;;;4139611;28;20041;-46
2023/02/09 12:32:56;;;;;;;3.92;1.30;;;26.20;64.70;;;;;;4138430;28;20033;-46
2023/02/09 12:35:37;;;;;;;2.92;1.30;;;26.20;64.70;;;;;;4131289;28;20073;-46
2023/02/09 12:38:45;;;;;;;4.05;1.00;;;26.20;64.60;;;;;;4126142;28;20045;-44
2023/02/09 12:41:09;;;;;;;10.98;1.52;;;26.20;64.80;;;;;;4092359;28;20064;-47
2023/02/09 12:43:33;;;;;;;3.55;1.15;;;26.20;64.70;;;;;;4136902;28;20036;-45
2023/02/09 12:46:15;;;;;;;4.68;1.20;;;26.20;64.70;;;;;;4136487;28;20076;-52
2023/02/09 12:49:02;;;;;;;6.70;1.17;;;26.20;64.60;;;;;;4139380;28;20446;-49
2023/02/09 12:51:49;;;;;;;4.80;1.00;;;26.10;64.50;;;;;;4136852;28;20120;-45
2023/02/09 12:54:36;;;;;;;5.70;1.20;;;26.20;64.70;;;;;;4140670;28;20110;-52
2023/02/09 12:57:19;;;;;;;4.63;1.25;;;26.10;64.70;;;;;;4136290;28;20049;-46
2023/02/09 13:00:00;;;;;;;2.22;1.13;;;26.10;64.80;;;;;;4136074;28;20042;-48
2023/02/09 13:02:29;;;;;;;4.13;1.13;;;26.10;64.80;;;;;;4132475;28;20041;-46
2023/02/09 13:05:17;;;;;;;2.35;1.02;;;26.10;64.80;;;;;;4134710;28;20371;-44